sensor_id;sensor_type;location;lat;lon;timestamp;P1;durP1;ratioP1;P2;durP2;ratioP2
3274;SDS011;1649;53.672;10.064;2023-06-04T00:01:37;5.23;;;2.50;;
3274;SDS011;1649;53.672;10.064;2023-06-04T00:04:03;11.27;;;3.10;;
3274;SDS011;1649;53.672;10.064;2023-06-04T00:06:28;6.50;;;2.50;;
3274;SDS011;1649;53.672;10.064;2023-06-04T00:08:54;5.33;;;2.47;;
3274;SDS011;1649;53.672;10.064;2023-06-04T00:11:19;5.97;;;2.80;;
3274;SDS011;1649;53.672;10.064;2023-06-04T00:13:45;5.83;;;3.07;;
3274;SDS011;1649;53.672;10.064;2023-06-04T00:16:10;5.90;;;2.63;;
3274;SDS011;1649;53.672;10.064;2023-06-04T00:18:36;5.47;;;2.50;;
3274;SDS011;1649;53.672;10.064;2023-06-04T00:21:01;6.50;;;2.70;;
3274;SDS011;1649;53.672;10.064;2023-06-04T00:23:27;5.60;;;2.80;;
3274;SDS011;1649;53.672;10.064;2023-06-04T00:25:52;7.27;;;2.80;;
3274;SDS011;1649;53.672;10.064;2023-06-04T00:28:18;7.90;;;3.07;;
3274;SDS011;1649;53.672;10.064;2023-06-04T00:30:44;5.00;;;2.40;;
3274;SDS011;1649;53.672;10.064;2023-06-04T00:33:10;5.77;;;2.60;;
3274;SDS011;1649;53.672;10.064;2023-06-04T00:35:35;6.27;;;2.90;;
3274;SDS011;1649;53.672;10.064;2023-06-04T00:38:01;6.03;;;2.77;;
3274;SDS011;1649;53.672;10.064;2023-06-04T00:40:27;5.50;;;2.67;;
3274;SDS011;1649;53.672;10.064;2023-06-04T00:42:52;5.23;;;2.63;;
3274;SDS011;1649;53.672;10.064;2023-06-04T00:45:18;6.83;;;2.90;;
3274;SDS011;1649;53.672;10.064;2023-06-04T00:47:44;6.30;;;2.87;;
3274;SDS011;1649;53.672;10.064;2023-06-04T00:50:10;6.70;;;3.00;;
3274;SDS011;1649;53.672;10.064;2023-06-04T00:52:36;6.03;;;2.83;;
3274;SDS011;1649;53.672;10.064;2023-06-04T00:55:02;6.20;;;3.00;;
3274;SDS011;1649;53.672;10.064;2023-06-04T00:57:28;6.37;;;3.20;;
3274;SDS011;1649;53.672;10.064;2023-06-04T00:59:53;5.40;;;2.97;;
3274;SDS011;1649;53.672;10.064;2023-06-04T01:02:23;5.83;;;3.10;;
3274;SDS011;1649;53.672;10.064;2023-06-04T01:04:53;6.23;;;3.10;;
3274;SDS011;1649;53.672;10.064;2023-06-04T01:07:27;7.63;;;3.27;;
3274;SDS011;1649;53.672;10.064;2023-06-04T01:09:54;7.73;;;3.30;;
3274;SDS011;1649;53.672;10.064;2023-06-04T01:12:20;7.10;;;3.57;;
3274;SDS011;1649;53.672;10.064;2023-06-04T01:14:45;7.47;;;3.67;;
3274;SDS011;1649;53.672;10.064;2023-06-04T01:17:13;6.17;;;3.43;;
3274;SDS011;1649;53.672;10.064;2023-06-04T01:25:22;5.97;;;3.20;;
3274;SDS011;1649;53.672;10.064;2023-06-04T01:27:51;6.87;;;3.50;;
3274;SDS011;1649;53.672;10.064;2023-06-04T01:30:25;5.87;;;2.67;;
3274;SDS011;1649;53.672;10.064;2023-06-04T01:32:53;6.30;;;3.07;;
3274;SDS011;1649;53.672;10.064;2023-06-04T01:35:19;7.23;;;3.50;;
3274;SDS011;1649;53.672;10.064;2023-06-04T01:37:45;6.33;;;3.60;;
3274;SDS011;1649;53.672;10.064;2023-06-04T01:40:12;7.37;;;3.10;;
3274;SDS011;1649;53.672;10.064;2023-06-04T01:42:38;7.00;;;3.27;;
3274;SDS011;1649;53.672;10.064;2023-06-04T01:45:04;6.87;;;3.70;;
3274;SDS011;1649;53.672;10.064;2023-06-04T01:47:30;5.90;;;3.40;;
3274;SDS011;1649;53.672;10.064;2023-06-04T01:49:55;6.23;;;3.33;;
3274;SDS011;1649;53.672;10.064;2023-06-04T01:52:21;6.60;;;3.40;;
3274;SDS011;1649;53.672;10.064;2023-06-04T01:54:47;10.87;;;3.70;;
3274;SDS011;1649;53.672;10.064;2023-06-04T01:57:17;7.57;;;4.00;;
3274;SDS011;1649;53.672;10.064;2023-06-04T01:59:45;5.97;;;3.20;;
3274;SDS011;1649;53.672;10.064;2023-06-04T02:02:11;6.33;;;3.13;;
3274;SDS011;1649;53.672;10.064;2023-06-04T02:04:37;6.10;;;3.43;;
3274;SDS011;1649;53.672;10.064;2023-06-04T02:07:06;6.40;;;3.50;;
3274;SDS011;1649;53.672;10.064;2023-06-04T02:09:34;6.40;;;3.43;;
3274;SDS011;1649;53.672;10.064;2023-06-04T02:12:01;6.80;;;3.63;;
3274;SDS011;1649;53.672;10.064;2023-06-04T02:14:26;7.70;;;4.07;;
3274;SDS011;1649;53.672;10.064;2023-06-04T02:16:52;7.80;;;3.60;;
3274;SDS011;1649;53.672;10.064;2023-06-04T02:19:18;6.17;;;3.67;;
3274;SDS011;1649;53.672;10.064;2023-06-04T02:21:45;7.90;;;3.70;;
3274;SDS011;1649;53.672;10.064;2023-06-04T02:24:11;6.77;;;4.23;;
3274;SDS011;1649;53.672;10.064;2023-06-04T02:26:37;6.80;;;3.90;;
3274;SDS011;1649;53.672;10.064;2023-06-04T02:29:03;6.00;;;3.60;;
3274;SDS011;1649;53.672;10.064;2023-06-04T02:31:29;6.73;;;3.80;;
3274;SDS011;1649;53.672;10.064;2023-06-04T02:33:55;7.47;;;3.90;;
3274;SDS011;1649;53.672;10.064;2023-06-04T02:36:21;6.90;;;4.27;;
3274;SDS011;1649;53.672;10.064;2023-06-04T02:38:46;7.00;;;3.97;;
3274;SDS011;1649;53.672;10.064;2023-06-04T02:41:12;7.73;;;3.90;;
3274;SDS011;1649;53.672;10.064;2023-06-04T02:43:37;7.17;;;4.53;;
3274;SDS011;1649;53.672;10.064;2023-06-04T02:46:03;6.93;;;3.90;;
3274;SDS011;1649;53.672;10.064;2023-06-04T02:48:28;6.27;;;3.90;;
3274;SDS011;1649;53.672;10.064;2023-06-04T02:50:54;6.67;;;3.70;;
3274;SDS011;1649;53.672;10.064;2023-06-04T02:53:20;8.47;;;4.53;;
3274;SDS011;1649;53.672;10.064;2023-06-04T02:55:45;6.83;;;3.83;;
3274;SDS011;1649;53.672;10.064;2023-06-04T02:58:11;8.40;;;3.80;;
3274;SDS011;1649;53.672;10.064;2023-06-04T03:00:36;7.37;;;4.20;;
3274;SDS011;1649;53.672;10.064;2023-06-04T03:03:02;8.00;;;4.43;;
3274;SDS011;1649;53.672;10.064;2023-06-04T03:05:27;6.70;;;3.87;;
3274;SDS011;1649;53.672;10.064;2023-06-04T03:07:55;7.30;;;4.10;;
3274;SDS011;1649;53.672;10.064;2023-06-04T03:10:22;8.07;;;3.80;;
3274;SDS011;1649;53.672;10.064;2023-06-04T03:12:47;6.60;;;3.60;;
3274;SDS011;1649;53.672;10.064;2023-06-04T03:15:13;7.87;;;4.10;;
3274;SDS011;1649;53.672;10.064;2023-06-04T03:17:39;7.80;;;4.00;;
3274;SDS011;1649;53.672;10.064;2023-06-04T03:20:05;6.77;;;3.70;;
3274;SDS011;1649;53.672;10.064;2023-06-04T03:22:32;6.90;;;3.50;;
3274;SDS011;1649;53.672;10.064;2023-06-04T03:24:58;6.00;;;3.40;;
3274;SDS011;1649;53.672;10.064;2023-06-04T03:27:24;6.43;;;3.70;;
3274;SDS011;1649;53.672;10.064;2023-06-04T03:29:49;7.30;;;3.67;;
3274;SDS011;1649;53.672;10.064;2023-06-04T03:32:15;7.37;;;3.97;;
3274;SDS011;1649;53.672;10.064;2023-06-04T03:34:43;6.80;;;3.50;;
3274;SDS011;1649;53.672;10.064;2023-06-04T03:37:09;7.77;;;3.97;;
3274;SDS011;1649;53.672;10.064;2023-06-04T03:39:35;6.40;;;3.73;;
3274;SDS011;1649;53.672;10.064;2023-06-04T03:42:00;6.67;;;3.60;;
3274;SDS011;1649;53.672;10.064;2023-06-04T03:44:26;5.90;;;3.50;;
3274;SDS011;1649;53.672;10.064;2023-06-04T03:46:51;7.30;;;3.83;;
3274;SDS011;1649;53.672;10.064;2023-06-04T03:49:17;6.80;;;3.70;;
3274;SDS011;1649;53.672;10.064;2023-06-04T03:51:43;6.67;;;3.47;;
3274;SDS011;1649;53.672;10.064;2023-06-04T03:54:09;8.80;;;4.20;;
3274;SDS011;1649;53.672;10.064;2023-06-04T03:56:35;7.00;;;3.60;;
3274;SDS011;1649;53.672;10.064;2023-06-04T03:59:00;10.90;;;4.37;;
3274;SDS011;1649;53.672;10.064;2023-06-04T04:01:26;7.43;;;4.13;;
3274;SDS011;1649;53.672;10.064;2023-06-04T04:03:53;9.73;;;3.97;;
3274;SDS011;1649;53.672;10.064;2023-06-04T04:06:18;6.07;;;3.40;;
3274;SDS011;1649;53.672;10.064;2023-06-04T04:08:45;7.70;;;4.00;;
3274;SDS011;1649;53.672;10.064;2023-06-04T04:13:37;6.60;;;3.97;;
3274;SDS011;1649;53.672;10.064;2023-06-04T04:16:02;6.13;;;3.30;;
3274;SDS011;1649;53.672;10.064;2023-06-04T04:18:31;7.17;;;3.73;;
3274;SDS011;1649;53.672;10.064;2023-06-04T04:20:57;7.20;;;3.50;;
3274;SDS011;1649;53.672;10.064;2023-06-04T04:23:23;7.73;;;3.80;;
3274;SDS011;1649;53.672;10.064;2023-06-04T04:25:48;5.73;;;3.07;;
3274;SDS011;1649;53.672;10.064;2023-06-04T04:28:14;7.30;;;3.70;;
3274;SDS011;1649;53.672;10.064;2023-06-04T04:30:42;6.60;;;3.80;;
3274;SDS011;1649;53.672;10.064;2023-06-04T04:33:07;8.30;;;3.60;;
3274;SDS011;1649;53.672;10.064;2023-06-04T04:35:33;6.40;;;3.70;;
3274;SDS011;1649;53.672;10.064;2023-06-04T04:37:59;6.33;;;3.53;;
3274;SDS011;1649;53.672;10.064;2023-06-04T04:40:28;8.63;;;3.77;;
3274;SDS011;1649;53.672;10.064;2023-06-04T04:42:54;7.13;;;3.80;;
3274;SDS011;1649;53.672;10.064;2023-06-04T04:45:19;7.80;;;3.50;;
3274;SDS011;1649;53.672;10.064;2023-06-04T04:47:45;6.73;;;3.73;;
3274;SDS011;1649;53.672;10.064;2023-06-04T04:50:11;7.40;;;3.70;;
3274;SDS011;1649;53.672;10.064;2023-06-04T04:52:37;9.40;;;4.30;;
3274;SDS011;1649;53.672;10.064;2023-06-04T04:55:03;10.80;;;4.20;;
3274;SDS011;1649;53.672;10.064;2023-06-04T04:57:29;8.90;;;4.00;;
3274;SDS011;1649;53.672;10.064;2023-06-04T04:59:55;12.73;;;3.80;;
3274;SDS011;1649;53.672;10.064;2023-06-04T05:02:20;7.87;;;4.30;;
3274;SDS011;1649;53.672;10.064;2023-06-04T05:04:46;10.17;;;3.60;;
3274;SDS011;1649;53.672;10.064;2023-06-04T05:07:11;11.43;;;3.60;;
3274;SDS011;1649;53.672;10.064;2023-06-04T05:09:37;8.70;;;3.90;;
3274;SDS011;1649;53.672;10.064;2023-06-04T05:12:02;9.03;;;3.83;;
3274;SDS011;1649;53.672;10.064;2023-06-04T05:14:28;8.90;;;3.87;;
3274;SDS011;1649;53.672;10.064;2023-06-04T05:16:54;8.23;;;4.00;;
3274;SDS011;1649;53.672;10.064;2023-06-04T05:19:23;12.40;;;4.40;;
3274;SDS011;1649;53.672;10.064;2023-06-04T05:21:49;12.40;;;4.37;;
3274;SDS011;1649;53.672;10.064;2023-06-04T05:24:14;8.60;;;3.37;;
3274;SDS011;1649;53.672;10.064;2023-06-04T05:26:40;10.70;;;3.80;;
3274;SDS011;1649;53.672;10.064;2023-06-04T05:29:06;9.40;;;3.53;;
3274;SDS011;1649;53.672;10.064;2023-06-04T05:31:32;6.93;;;3.17;;
3274;SDS011;1649;53.672;10.064;2023-06-04T05:33:58;9.10;;;3.00;;
3274;SDS011;1649;53.672;10.064;2023-06-04T05:36:26;10.43;;;3.50;;
3274;SDS011;1649;53.672;10.064;2023-06-04T05:38:52;7.37;;;3.30;;
3274;SDS011;1649;53.672;10.064;2023-06-04T05:41:22;9.17;;;3.07;;
3274;SDS011;1649;53.672;10.064;2023-06-04T05:43:51;9.77;;;3.53;;
3274;SDS011;1649;53.672;10.064;2023-06-04T05:46:17;8.33;;;3.17;;
3274;SDS011;1649;53.672;10.064;2023-06-04T05:48:42;8.47;;;2.83;;
3274;SDS011;1649;53.672;10.064;2023-06-04T05:51:08;8.40;;;3.27;;
3274;SDS011;1649;53.672;10.064;2023-06-04T05:53:33;7.90;;;3.20;;
3274;SDS011;1649;53.672;10.064;2023-06-04T05:55:59;10.63;;;3.43;;
3274;SDS011;1649;53.672;10.064;2023-06-04T05:58:25;8.43;;;2.73;;
3274;SDS011;1649;53.672;10.064;2023-06-04T06:00:50;9.20;;;2.70;;
3274;SDS011;1649;53.672;10.064;2023-06-04T06:03:16;8.80;;;2.83;;
3274;SDS011;1649;53.672;10.064;2023-06-04T06:05:42;8.60;;;2.87;;
3274;SDS011;1649;53.672;10.064;2023-06-04T06:08:08;10.37;;;3.17;;
3274;SDS011;1649;53.672;10.064;2023-06-04T06:10:34;7.50;;;3.20;;
3274;SDS011;1649;53.672;10.064;2023-06-04T06:12:59;8.10;;;3.20;;
3274;SDS011;1649;53.672;10.064;2023-06-04T06:15:27;8.77;;;3.00;;
3274;SDS011;1649;53.672;10.064;2023-06-04T06:17:53;7.73;;;2.73;;
3274;SDS011;1649;53.672;10.064;2023-06-04T06:20:19;9.23;;;3.13;;
3274;SDS011;1649;53.672;10.064;2023-06-04T06:22:46;9.13;;;3.40;;
3274;SDS011;1649;53.672;10.064;2023-06-04T06:25:12;9.53;;;3.40;;
3274;SDS011;1649;53.672;10.064;2023-06-04T06:27:40;6.43;;;3.33;;
3274;SDS011;1649;53.672;10.064;2023-06-04T06:30:07;8.43;;;3.50;;
3274;SDS011;1649;53.672;10.064;2023-06-04T06:32:33;11.53;;;3.40;;
3274;SDS011;1649;53.672;10.064;2023-06-04T06:34:58;7.37;;;2.70;;
3274;SDS011;1649;53.672;10.064;2023-06-04T06:37:24;7.03;;;2.67;;
3274;SDS011;1649;53.672;10.064;2023-06-04T06:39:49;8.50;;;3.10;;
3274;SDS011;1649;53.672;10.064;2023-06-04T06:42:15;9.23;;;2.63;;
3274;SDS011;1649;53.672;10.064;2023-06-04T06:44:42;6.37;;;2.40;;
3274;SDS011;1649;53.672;10.064;2023-06-04T06:47:09;9.30;;;3.67;;
3274;SDS011;1649;53.672;10.064;2023-06-04T06:49:35;8.53;;;2.90;;
3274;SDS011;1649;53.672;10.064;2023-06-04T06:52:01;7.37;;;2.93;;
3274;SDS011;1649;53.672;10.064;2023-06-04T06:54:26;9.33;;;2.77;;
3274;SDS011;1649;53.672;10.064;2023-06-04T06:56:52;5.70;;;2.57;;
3274;SDS011;1649;53.672;10.064;2023-06-04T06:59:17;7.93;;;3.20;;
3274;SDS011;1649;53.672;10.064;2023-06-04T07:01:43;7.37;;;2.40;;
3274;SDS011;1649;53.672;10.064;2023-06-04T07:04:09;6.03;;;2.67;;
3274;SDS011;1649;53.672;10.064;2023-06-04T07:06:34;6.77;;;2.33;;
3274;SDS011;1649;53.672;10.064;2023-06-04T07:09:01;7.63;;;2.40;;
3274;SDS011;1649;53.672;10.064;2023-06-04T07:11:27;6.93;;;2.37;;
3274;SDS011;1649;53.672;10.064;2023-06-04T07:13:53;5.87;;;2.50;;
3274;SDS011;1649;53.672;10.064;2023-06-04T07:16:19;5.80;;;2.23;;
3274;SDS011;1649;53.672;10.064;2023-06-04T07:18:47;9.23;;;2.70;;
3274;SDS011;1649;53.672;10.064;2023-06-04T07:21:13;8.63;;;2.67;;
3274;SDS011;1649;53.672;10.064;2023-06-04T07:23:38;8.73;;;2.57;;
3274;SDS011;1649;53.672;10.064;2023-06-04T07:26:03;8.10;;;2.63;;
3274;SDS011;1649;53.672;10.064;2023-06-04T07:28:29;7.33;;;2.10;;
3274;SDS011;1649;53.672;10.064;2023-06-04T07:30:55;5.77;;;1.80;;
3274;SDS011;1649;53.672;10.064;2023-06-04T07:33:20;7.03;;;2.00;;
3274;SDS011;1649;53.672;10.064;2023-06-04T07:35:46;7.77;;;2.23;;
3274;SDS011;1649;53.672;10.064;2023-06-04T07:38:11;5.63;;;2.10;;
3274;SDS011;1649;53.672;10.064;2023-06-04T07:40:37;7.80;;;2.10;;
3274;SDS011;1649;53.672;10.064;2023-06-04T07:43:02;5.50;;;2.00;;
3274;SDS011;1649;53.672;10.064;2023-06-04T07:45:28;6.60;;;1.80;;
3274;SDS011;1649;53.672;10.064;2023-06-04T07:47:55;6.80;;;1.97;;
3274;SDS011;1649;53.672;10.064;2023-06-04T07:50:21;4.20;;;1.70;;
3274;SDS011;1649;53.672;10.064;2023-06-04T07:52:47;5.67;;;1.93;;
3274;SDS011;1649;53.672;10.064;2023-06-04T07:55:12;5.20;;;1.53;;
3274;SDS011;1649;53.672;10.064;2023-06-04T07:57:38;5.40;;;1.77;;
3274;SDS011;1649;53.672;10.064;2023-06-04T08:00:03;5.90;;;1.80;;
3274;SDS011;1649;53.672;10.064;2023-06-04T08:02:30;4.37;;;1.60;;
3274;SDS011;1649;53.672;10.064;2023-06-04T08:04:55;5.93;;;1.40;;
3274;SDS011;1649;53.672;10.064;2023-06-04T08:07:21;5.10;;;1.60;;
3274;SDS011;1649;53.672;10.064;2023-06-04T08:09:47;4.30;;;1.53;;
3274;SDS011;1649;53.672;10.064;2023-06-04T08:12:12;8.53;;;1.57;;
3274;SDS011;1649;53.672;10.064;2023-06-04T08:14:38;7.30;;;1.57;;
3274;SDS011;1649;53.672;10.064;2023-06-04T08:17:03;4.57;;;1.60;;
3274;SDS011;1649;53.672;10.064;2023-06-04T08:19:29;5.23;;;1.50;;
3274;SDS011;1649;53.672;10.064;2023-06-04T08:21:54;4.47;;;1.50;;
3274;SDS011;1649;53.672;10.064;2023-06-04T08:24:20;4.63;;;1.50;;
3274;SDS011;1649;53.672;10.064;2023-06-04T08:26:46;4.17;;;1.57;;
3274;SDS011;1649;53.672;10.064;2023-06-04T08:29:12;6.20;;;1.67;;
3274;SDS011;1649;53.672;10.064;2023-06-04T08:31:37;5.43;;;1.60;;
3274;SDS011;1649;53.672;10.064;2023-06-04T08:34:04;5.23;;;1.47;;
3274;SDS011;1649;53.672;10.064;2023-06-04T08:36:30;4.33;;;1.50;;
3274;SDS011;1649;53.672;10.064;2023-06-04T08:38:57;6.43;;;1.30;;
3274;SDS011;1649;53.672;10.064;2023-06-04T08:41:24;6.93;;;1.30;;
3274;SDS011;1649;53.672;10.064;2023-06-04T08:44:03;10.20;;;1.80;;
3274;SDS011;1649;53.672;10.064;2023-06-04T08:46:31;6.70;;;1.70;;
3274;SDS011;1649;53.672;10.064;2023-06-04T08:48:59;7.73;;;1.50;;
3274;SDS011;1649;53.672;10.064;2023-06-04T08:51:29;4.60;;;1.60;;
3274;SDS011;1649;53.672;10.064;2023-06-04T08:53:58;5.63;;;1.40;;
3274;SDS011;1649;53.672;10.064;2023-06-04T08:56:24;5.30;;;1.60;;
3274;SDS011;1649;53.672;10.064;2023-06-04T08:58:51;4.73;;;1.57;;
3274;SDS011;1649;53.672;10.064;2023-06-04T09:01:17;5.03;;;1.30;;
3274;SDS011;1649;53.672;10.064;2023-06-04T09:03:43;8.50;;;1.60;;
3274;SDS011;1649;53.672;10.064;2023-06-04T09:06:09;3.90;;;1.40;;
3274;SDS011;1649;53.672;10.064;2023-06-04T09:08:35;5.33;;;1.60;;
3274;SDS011;1649;53.672;10.064;2023-06-04T09:11:07;5.10;;;1.50;;
3274;SDS011;1649;53.672;10.064;2023-06-04T09:13:34;4.43;;;1.57;;
3274;SDS011;1649;53.672;10.064;2023-06-04T09:16:04;4.70;;;1.30;;
3274;SDS011;1649;53.672;10.064;2023-06-04T09:18:33;4.87;;;1.50;;
3274;SDS011;1649;53.672;10.064;2023-06-04T09:21:02;4.40;;;1.50;;
3274;SDS011;1649;53.672;10.064;2023-06-04T09:23:45;4.37;;;1.20;;
3274;SDS011;1649;53.672;10.064;2023-06-04T09:26:12;4.47;;;1.30;;
3274;SDS011;1649;53.672;10.064;2023-06-04T09:28:41;4.60;;;1.43;;
3274;SDS011;1649;53.672;10.064;2023-06-04T09:31:08;5.97;;;1.77;;
3274;SDS011;1649;53.672;10.064;2023-06-04T09:33:49;4.67;;;1.27;;
3274;SDS011;1649;53.672;10.064;2023-06-04T09:36:15;4.70;;;1.30;;
3274;SDS011;1649;53.672;10.064;2023-06-04T09:38:41;4.23;;;1.30;;
3274;SDS011;1649;53.672;10.064;2023-06-04T09:41:10;4.10;;;1.33;;
3274;SDS011;1649;53.672;10.064;2023-06-04T09:43:40;6.93;;;1.50;;
3274;SDS011;1649;53.672;10.064;2023-06-04T09:46:15;4.23;;;1.47;;
3274;SDS011;1649;53.672;10.064;2023-06-04T09:48:42;4.70;;;1.50;;
3274;SDS011;1649;53.672;10.064;2023-06-04T09:51:09;3.50;;;1.30;;
3274;SDS011;1649;53.672;10.064;2023-06-04T09:53:40;5.47;;;1.20;;
3274;SDS011;1649;53.672;10.064;2023-06-04T09:56:06;3.90;;;1.27;;
3274;SDS011;1649;53.672;10.064;2023-06-04T09:58:33;5.73;;;1.73;;
3274;SDS011;1649;53.672;10.064;2023-06-04T10:01:00;4.47;;;1.60;;
3274;SDS011;1649;53.672;10.064;2023-06-04T10:03:30;4.60;;;1.43;;
3274;SDS011;1649;53.672;10.064;2023-06-04T10:06:02;4.63;;;1.40;;
3274;SDS011;1649;53.672;10.064;2023-06-04T10:08:29;8.90;;;1.70;;
3274;SDS011;1649;53.672;10.064;2023-06-04T10:10:56;6.30;;;1.27;;
3274;SDS011;1649;53.672;10.064;2023-06-04T10:13:26;5.70;;;1.60;;
3274;SDS011;1649;53.672;10.064;2023-06-04T10:15:54;5.50;;;1.80;;
3274;SDS011;1649;53.672;10.064;2023-06-04T10:18:23;6.40;;;1.77;;
3274;SDS011;1649;53.672;10.064;2023-06-04T10:20:49;4.20;;;1.40;;
3274;SDS011;1649;53.672;10.064;2023-06-04T10:23:15;4.93;;;1.70;;
3274;SDS011;1649;53.672;10.064;2023-06-04T10:25:42;5.43;;;1.70;;
3274;SDS011;1649;53.672;10.064;2023-06-04T10:28:09;4.97;;;1.80;;
3274;SDS011;1649;53.672;10.064;2023-06-04T10:30:35;4.10;;;1.40;;
3274;SDS011;1649;53.672;10.064;2023-06-04T10:33:01;8.40;;;1.67;;
3274;SDS011;1649;53.672;10.064;2023-06-04T10:35:35;4.27;;;1.50;;
3274;SDS011;1649;53.672;10.064;2023-06-04T10:38:05;4.53;;;1.47;;
3274;SDS011;1649;53.672;10.064;2023-06-04T10:40:32;3.97;;;1.53;;
3274;SDS011;1649;53.672;10.064;2023-06-04T10:43:03;4.83;;;1.50;;
3274;SDS011;1649;53.672;10.064;2023-06-04T10:45:30;4.40;;;1.20;;
3274;SDS011;1649;53.672;10.064;2023-06-04T10:47:59;4.63;;;1.67;;
3274;SDS011;1649;53.672;10.064;2023-06-04T10:50:25;4.20;;;1.63;;
3274;SDS011;1649;53.672;10.064;2023-06-04T10:52:51;5.30;;;1.40;;
3274;SDS011;1649;53.672;10.064;2023-06-04T10:55:17;4.20;;;1.60;;
3274;SDS011;1649;53.672;10.064;2023-06-04T10:57:53;6.40;;;1.30;;
3274;SDS011;1649;53.672;10.064;2023-06-04T11:00:33;4.97;;;1.60;;
3274;SDS011;1649;53.672;10.064;2023-06-04T11:03:07;9.80;;;1.60;;
3274;SDS011;1649;53.672;10.064;2023-06-04T11:05:38;4.47;;;1.43;;
3274;SDS011;1649;53.672;10.064;2023-06-04T11:08:05;5.33;;;2.00;;
3274;SDS011;1649;53.672;10.064;2023-06-04T11:10:32;5.70;;;1.50;;
3274;SDS011;1649;53.672;10.064;2023-06-04T11:13:00;4.13;;;1.20;;
3274;SDS011;1649;53.672;10.064;2023-06-04T11:15:26;5.50;;;1.60;;
3274;SDS011;1649;53.672;10.064;2023-06-04T11:18:02;4.50;;;1.50;;
3274;SDS011;1649;53.672;10.064;2023-06-04T11:20:27;6.10;;;1.30;;
3274;SDS011;1649;53.672;10.064;2023-06-04T11:22:53;4.60;;;1.50;;
3274;SDS011;1649;53.672;10.064;2023-06-04T11:25:21;7.10;;;1.50;;
3274;SDS011;1649;53.672;10.064;2023-06-04T11:27:47;5.50;;;1.60;;
3274;SDS011;1649;53.672;10.064;2023-06-04T11:30:14;5.53;;;1.40;;
3274;SDS011;1649;53.672;10.064;2023-06-04T11:32:40;5.03;;;1.53;;
3274;SDS011;1649;53.672;10.064;2023-06-04T11:35:05;4.00;;;1.23;;
3274;SDS011;1649;53.672;10.064;2023-06-04T11:37:32;4.30;;;1.67;;
3274;SDS011;1649;53.672;10.064;2023-06-04T11:39:58;4.67;;;1.20;;
3274;SDS011;1649;53.672;10.064;2023-06-04T11:42:26;4.83;;;1.53;;
3274;SDS011;1649;53.672;10.064;2023-06-04T11:44:58;4.37;;;1.60;;
3274;SDS011;1649;53.672;10.064;2023-06-04T11:47:24;4.63;;;1.50;;
3274;SDS011;1649;53.672;10.064;2023-06-04T11:49:56;4.50;;;1.40;;
3274;SDS011;1649;53.672;10.064;2023-06-04T11:52:21;4.97;;;1.53;;
3274;SDS011;1649;53.672;10.064;2023-06-04T11:54:47;3.80;;;1.30;;
3274;SDS011;1649;53.672;10.064;2023-06-04T11:57:13;5.30;;;1.50;;
3274;SDS011;1649;53.672;10.064;2023-06-04T11:59:39;5.63;;;1.33;;
3274;SDS011;1649;53.672;10.064;2023-06-04T12:02:05;5.80;;;1.50;;
3274;SDS011;1649;53.672;10.064;2023-06-04T12:04:32;4.63;;;1.43;;
3274;SDS011;1649;53.672;10.064;2023-06-04T12:06:58;3.93;;;1.40;;
3274;SDS011;1649;53.672;10.064;2023-06-04T12:09:27;4.40;;;1.60;;
3274;SDS011;1649;53.672;10.064;2023-06-04T12:11:59;4.67;;;1.70;;
3274;SDS011;1649;53.672;10.064;2023-06-04T12:14:26;5.33;;;1.57;;
3274;SDS011;1649;53.672;10.064;2023-06-04T12:16:56;5.10;;;1.57;;
3274;SDS011;1649;53.672;10.064;2023-06-04T12:19:25;4.43;;;1.60;;
3274;SDS011;1649;53.672;10.064;2023-06-04T12:22:01;3.90;;;1.20;;
3274;SDS011;1649;53.672;10.064;2023-06-04T12:24:28;4.47;;;1.70;;
3274;SDS011;1649;53.672;10.064;2023-06-04T12:27:01;4.20;;;1.33;;
3274;SDS011;1649;53.672;10.064;2023-06-04T12:29:28;5.47;;;1.87;;
3274;SDS011;1649;53.672;10.064;2023-06-04T12:32:01;7.30;;;1.90;;
3274;SDS011;1649;53.672;10.064;2023-06-04T12:34:28;4.80;;;1.50;;
3274;SDS011;1649;53.672;10.064;2023-06-04T12:36:54;3.80;;;1.33;;
3274;SDS011;1649;53.672;10.064;2023-06-04T12:39:19;6.10;;;1.63;;
3274;SDS011;1649;53.672;10.064;2023-06-04T12:41:45;5.00;;;1.60;;
3274;SDS011;1649;53.672;10.064;2023-06-04T12:44:11;5.53;;;1.70;;
3274;SDS011;1649;53.672;10.064;2023-06-04T12:46:37;4.13;;;1.43;;
3274;SDS011;1649;53.672;10.064;2023-06-04T12:49:02;4.90;;;1.57;;
3274;SDS011;1649;53.672;10.064;2023-06-04T12:51:27;5.50;;;1.60;;
3274;SDS011;1649;53.672;10.064;2023-06-04T12:53:53;5.90;;;1.63;;
3274;SDS011;1649;53.672;10.064;2023-06-04T12:56:18;5.50;;;1.40;;
3274;SDS011;1649;53.672;10.064;2023-06-04T12:58:44;6.53;;;1.80;;
3274;SDS011;1649;53.672;10.064;2023-06-04T13:01:10;4.67;;;1.37;;
3274;SDS011;1649;53.672;10.064;2023-06-04T13:03:36;5.00;;;2.00;;
3274;SDS011;1649;53.672;10.064;2023-06-04T13:06:03;5.40;;;1.83;;
3274;SDS011;1649;53.672;10.064;2023-06-04T13:08:29;4.97;;;1.43;;
3274;SDS011;1649;53.672;10.064;2023-06-04T13:10:55;4.43;;;1.47;;
3274;SDS011;1649;53.672;10.064;2023-06-04T13:13:20;6.60;;;1.70;;
3274;SDS011;1649;53.672;10.064;2023-06-04T13:15:46;4.80;;;1.70;;
3274;SDS011;1649;53.672;10.064;2023-06-04T13:18:12;4.30;;;1.50;;
3274;SDS011;1649;53.672;10.064;2023-06-04T13:20:37;4.00;;;1.40;;
3274;SDS011;1649;53.672;10.064;2023-06-04T13:23:05;4.63;;;1.70;;
3274;SDS011;1649;53.672;10.064;2023-06-04T13:25:31;7.17;;;1.53;;
3274;SDS011;1649;53.672;10.064;2023-06-04T13:28:00;5.40;;;1.63;;
3274;SDS011;1649;53.672;10.064;2023-06-04T13:30:27;4.30;;;1.60;;
3274;SDS011;1649;53.672;10.064;2023-06-04T13:32:53;4.77;;;1.50;;
3274;SDS011;1649;53.672;10.064;2023-06-04T13:35:19;5.70;;;1.60;;
3274;SDS011;1649;53.672;10.064;2023-06-04T13:37:44;4.80;;;1.60;;
3274;SDS011;1649;53.672;10.064;2023-06-04T13:40:10;6.20;;;1.80;;
3274;SDS011;1649;53.672;10.064;2023-06-04T13:42:36;6.87;;;1.53;;
3274;SDS011;1649;53.672;10.064;2023-06-04T13:45:02;5.03;;;1.77;;
3274;SDS011;1649;53.672;10.064;2023-06-04T13:47:28;4.30;;;1.57;;
3274;SDS011;1649;53.672;10.064;2023-06-04T13:49:53;4.53;;;1.40;;
3274;SDS011;1649;53.672;10.064;2023-06-04T13:52:19;7.60;;;1.80;;
3274;SDS011;1649;53.672;10.064;2023-06-04T13:54:44;4.97;;;1.60;;
3274;SDS011;1649;53.672;10.064;2023-06-04T13:57:10;4.60;;;1.70;;
3274;SDS011;1649;53.672;10.064;2023-06-04T13:59:36;4.30;;;1.57;;
3274;SDS011;1649;53.672;10.064;2023-06-04T14:02:02;4.40;;;1.57;;
3274;SDS011;1649;53.672;10.064;2023-06-04T14:04:28;5.40;;;1.70;;
3274;SDS011;1649;53.672;10.064;2023-06-04T14:06:53;5.10;;;2.10;;
3274;SDS011;1649;53.672;10.064;2023-06-04T14:09:19;5.43;;;1.40;;
3274;SDS011;1649;53.672;10.064;2023-06-04T14:11:45;4.50;;;1.73;;
3274;SDS011;1649;53.672;10.064;2023-06-04T14:14:15;6.73;;;1.87;;
3274;SDS011;1649;53.672;10.064;2023-06-04T14:16:42;5.20;;;1.80;;
3274;SDS011;1649;53.672;10.064;2023-06-04T14:19:08;5.83;;;2.10;;
3274;SDS011;1649;53.672;10.064;2023-06-04T14:21:33;4.90;;;1.43;;
3274;SDS011;1649;53.672;10.064;2023-06-04T14:23:59;4.97;;;1.70;;
3274;SDS011;1649;53.672;10.064;2023-06-04T14:26:24;8.00;;;1.90;;
3274;SDS011;1649;53.672;10.064;2023-06-04T14:28:50;5.57;;;1.80;;
3274;SDS011;1649;53.672;10.064;2023-06-04T14:31:15;6.20;;;2.00;;
3274;SDS011;1649;53.672;10.064;2023-06-04T14:33:41;6.80;;;1.87;;
3274;SDS011;1649;53.672;10.064;2023-06-04T14:36:06;5.40;;;2.10;;
3274;SDS011;1649;53.672;10.064;2023-06-04T14:38:32;5.87;;;2.40;;
3274;SDS011;1649;53.672;10.064;2023-06-04T14:40:58;5.00;;;1.90;;
3274;SDS011;1649;53.672;10.064;2023-06-04T14:43:24;6.27;;;2.10;;
3274;SDS011;1649;53.672;10.064;2023-06-04T14:45:49;7.53;;;2.33;;
3274;SDS011;1649;53.672;10.064;2023-06-04T14:48:15;4.70;;;1.90;;
3274;SDS011;1649;53.672;10.064;2023-06-04T14:50:41;5.80;;;1.97;;
3274;SDS011;1649;53.672;10.064;2023-06-04T14:53:06;5.50;;;2.33;;
3274;SDS011;1649;53.672;10.064;2023-06-04T14:55:32;5.17;;;1.80;;
3274;SDS011;1649;53.672;10.064;2023-06-04T14:57:59;5.20;;;2.00;;
3274;SDS011;1649;53.672;10.064;2023-06-04T15:00:24;4.97;;;1.80;;
3274;SDS011;1649;53.672;10.064;2023-06-04T15:02:50;6.37;;;2.23;;
3274;SDS011;1649;53.672;10.064;2023-06-04T15:05:15;5.20;;;2.10;;